createdAt,value
2023-05-14T00:01:51.968Z,101397.81
2023-05-14T00:04:19.679Z,101394.94
2023-05-14T00:06:46.960Z,101395.88
2023-05-14T00:09:16.367Z,101390.53
2023-05-14T00:11:43.427Z,101385.53
2023-05-14T00:14:10.552Z,101389.09
2023-05-14T00:16:37.737Z,101389.28
2023-05-14T00:19:05.057Z,101387.50
2023-05-14T00:21:32.254Z,101381.03
2023-05-14T00:24:01.626Z,101396.72
2023-05-14T00:26:28.717Z,101387.56
2023-05-14T00:28:55.834Z,101382.22
2023-05-14T00:31:22.923Z,101382.63
2023-05-14T00:33:50.001Z,101382.31
2023-05-14T00:36:17.025Z,101379.75
2023-05-14T00:38:44.097Z,101376.44
2023-05-14T00:41:11.172Z,101377.16
2023-05-14T00:43:38.276Z,101376.75
2023-05-14T00:46:05.916Z,101374.66
2023-05-14T00:48:33.094Z,101375.75
2023-05-14T00:51:00.452Z,101373.78
2023-05-14T00:53:27.735Z,101365.78
2023-05-14T00:55:54.866Z,101367.13
2023-05-14T00:58:22.714Z,101367.75
2023-05-14T01:00:49.916Z,101368.00
2023-05-14T01:03:19.204Z,101375.38
2023-05-14T01:06:13.627Z,101365.88
2023-05-14T01:09:32.593Z,101368.44
2023-05-14T01:12:53.107Z,101375.81
2023-05-14T01:15:31.166Z,101374.59
2023-05-14T01:18:25.045Z,101365.25
2023-05-14T01:20:52.704Z,101372.38
2023-05-14T01:23:19.960Z,101370.91
2023-05-14T01:25:47.166Z,101366.06
2023-05-14T01:28:32.799Z,101370.78
2023-05-14T01:31:25.134Z,101371.56
2023-05-14T01:33:54.541Z,101373.03
2023-05-14T01:36:23.022Z,101366.16
2023-05-14T01:38:52.779Z,101364.44
2023-05-14T01:41:21.276Z,101362.78
2023-05-14T01:43:48.643Z,101362.22
2023-05-14T01:46:19.741Z,101355.53
2023-05-14T01:48:46.966Z,101351.84
2023-05-14T01:51:14.684Z,101357.84
2023-05-14T01:53:41.793Z,101355.81
2023-05-14T01:56:08.878Z,101356.66
2023-05-14T01:58:35.998Z,101352.78
2023-05-14T02:01:03.104Z,101351.91
2023-05-14T02:03:30.163Z,101347.09
2023-05-14T02:05:57.226Z,101350.91
2023-05-14T02:08:24.368Z,101336.94
2023-05-14T02:10:51.455Z,101345.06
2023-05-14T02:13:21.638Z,101345.06
2023-05-14T02:15:49.804Z,101341.84
2023-05-14T02:18:17.016Z,101345.16
2023-05-14T02:20:44.253Z,101341.22
2023-05-14T02:23:11.374Z,101344.38
2023-05-14T02:25:38.762Z,101341.06
2023-05-14T02:28:05.845Z,101339.66
2023-05-14T02:30:33.053Z,101336.63
2023-05-14T02:33:00.452Z,101331.88
2023-05-14T02:35:27.539Z,101336.16
2023-05-14T02:37:54.702Z,101338.50
2023-05-14T02:40:21.923Z,101335.72
2023-05-14T02:42:51.346Z,101339.66
2023-05-14T02:45:18.502Z,101332.84
2023-05-14T02:47:45.864Z,101335.00
2023-05-14T02:50:12.967Z,101337.38
2023-05-14T02:52:40.142Z,101330.50
2023-05-14T02:55:07.785Z,101332.66
2023-05-14T02:57:34.976Z,101333.50
2023-05-14T03:00:02.323Z,101333.59
2023-05-14T03:02:29.882Z,101332.53
2023-05-14T03:04:57.638Z,101336.25
2023-05-14T03:07:24.700Z,101335.03
2023-05-14T03:09:51.726Z,101331.91
2023-05-14T03:12:19.332Z,101337.97
2023-05-14T03:14:46.377Z,101338.50
2023-05-14T03:17:13.470Z,101337.91
2023-05-14T03:19:40.572Z,101340.22
2023-05-14T03:22:07.639Z,101344.25
2023-05-14T03:24:35.261Z,101343.00
2023-05-14T03:27:02.282Z,101336.88
2023-05-14T03:29:29.583Z,101340.44
2023-05-14T03:31:56.678Z,101336.22
2023-05-14T03:34:23.904Z,101339.28
2023-05-14T03:36:53.169Z,101334.13
2023-05-14T03:39:20.990Z,101333.94
2023-05-14T03:41:48.697Z,101330.75
2023-05-14T03:44:16.959Z,101331.19
2023-05-14T03:46:44.402Z,101327.03
2023-05-14T03:49:11.500Z,101340.31
2023-05-14T03:51:38.567Z,101331.38
2023-05-14T03:54:05.818Z,101332.38
2023-05-14T03:56:32.870Z,101335.03
2023-05-14T03:58:59.944Z,101331.81
2023-05-14T04:01:27.052Z,101328.63
2023-05-14T04:03:54.337Z,101328.03
2023-05-14T04:06:21.501Z,101322.75
2023-05-14T04:08:48.598Z,101319.66
2023-05-14T04:11:15.714Z,101323.47
2023-05-14T04:13:42.804Z,101324.69
2023-05-14T04:16:09.853Z,101320.25
2023-05-14T04:18:37.090Z,101318.53
2023-05-14T04:21:04.402Z,101314.34
2023-05-14T04:23:31.883Z,101317.81
2023-05-14T04:25:59.357Z,101316.66
2023-05-14T04:28:26.468Z,101320.78
2023-05-14T04:30:53.494Z,101316.22
2023-05-14T04:33:20.689Z,101318.81
2023-05-14T04:35:47.927Z,101321.63
2023-05-14T04:38:15.264Z,101317.72
2023-05-14T04:40:42.796Z,101318.06
2023-05-14T04:43:10.559Z,101311.69
2023-05-14T04:45:37.794Z,101310.75
2023-05-14T04:48:05.834Z,101312.44
2023-05-14T04:50:32.916Z,101300.56
2023-05-14T04:52:59.989Z,101305.38
2023-05-14T04:55:27.243Z,101306.34
2023-05-14T04:57:54.341Z,101307.63
2023-05-14T05:00:22.147Z,101308.53
2023-05-14T05:02:49.768Z,101311.94
2023-05-14T05:05:16.953Z,101309.81
2023-05-14T05:07:43.993Z,101308.19
2023-05-14T05:10:11.257Z,101302.94
2023-05-14T05:12:38.526Z,101307.81
2023-05-14T05:15:07.027Z,101297.72
2023-05-14T05:17:34.257Z,101301.59
2023-05-14T05:20:01.317Z,101293.75
2023-05-14T05:22:28.359Z,101308.09
2023-05-14T05:24:55.435Z,101306.56
2023-05-14T05:27:22.589Z,101298.09
2023-05-14T05:29:49.634Z,101297.41
2023-05-14T05:32:16.709Z,101295.69
2023-05-14T05:34:43.842Z,101292.66
2023-05-14T05:37:12.748Z,101299.19
2023-05-14T05:39:40.202Z,101291.78
2023-05-14T05:42:08.040Z,101299.03
2023-05-14T05:44:35.466Z,101292.44
2023-05-14T05:47:02.701Z,101296.63
2023-05-14T05:49:31.169Z,101301.19
2023-05-14T05:52:16.894Z,101306.03
2023-05-14T05:54:43.956Z,101295.47
2023-05-14T05:57:11.234Z,101297.91
2023-05-14T05:59:38.339Z,101298.22
2023-05-14T06:02:05.745Z,101295.47
2023-05-14T06:04:32.940Z,101299.53
2023-05-14T06:06:59.995Z,101302.38
2023-05-14T06:09:27.040Z,101298.94
2023-05-14T06:11:54.098Z,101288.88
2023-05-14T06:14:21.129Z,101290.69
2023-05-14T06:16:48.218Z,101291.50
2023-05-14T06:19:15.395Z,101296.25
2023-05-14T06:21:42.538Z,101293.75
2023-05-14T06:24:10.400Z,101294.75
2023-05-14T06:26:37.544Z,101289.44
2023-05-14T06:29:04.630Z,101293.53
2023-05-14T06:31:31.787Z,101296.53
2023-05-14T06:33:58.817Z,101288.94
2023-05-14T06:36:25.892Z,101286.34
2023-05-14T06:38:52.928Z,101289.41
2023-05-14T06:41:19.979Z,101286.78
2023-05-14T06:43:47.022Z,101293.22
2023-05-14T06:46:16.359Z,101287.69
2023-05-14T06:48:43.455Z,101288.97
2023-05-14T06:51:11.112Z,101294.84
2023-05-14T06:53:41.162Z,101292.91
2023-05-14T06:56:08.266Z,101297.50
2023-05-14T06:58:35.345Z,101300.91
2023-05-14T07:01:02.441Z,101293.16
2023-05-14T07:03:29.532Z,101284.69
2023-05-14T07:05:56.608Z,101287.81
2023-05-14T07:08:23.659Z,101291.00
2023-05-14T07:10:50.746Z,101284.16
2023-05-14T07:13:18.022Z,101286.88
2023-05-14T07:15:45.174Z,101287.34
2023-05-14T07:18:12.200Z,101283.19
2023-05-14T07:20:40.600Z,101287.41
2023-05-14T07:23:10.587Z,101292.53
2023-05-14T07:25:40.753Z,101281.16
2023-05-14T07:28:07.801Z,101287.31
2023-05-14T07:30:34.858Z,101281.28
2023-05-14T07:33:02.029Z,101280.31
2023-05-14T07:35:29.195Z,101272.13
2023-05-14T07:37:56.501Z,101273.75
2023-05-14T07:40:25.514Z,101277.22
2023-05-14T07:42:52.915Z,101275.75
2023-05-14T07:45:20.253Z,101274.91
2023-05-14T07:47:51.852Z,101272.75
2023-05-14T07:50:19.755Z,101265.66
2023-05-14T07:52:46.920Z,101262.75
2023-05-14T07:55:14.181Z,101257.63
2023-05-14T07:57:41.366Z,101259.84
2023-05-14T08:00:09.240Z,101256.03
2023-05-14T08:02:36.623Z,101250.28
2023-05-14T08:05:04.553Z,101251.28
2023-05-14T08:07:31.765Z,101246.50
2023-05-14T08:10:02.007Z,101247.81
2023-05-14T08:12:29.828Z,101250.91
2023-05-14T08:14:56.945Z,101255.31
2023-05-14T08:17:24.015Z,101256.03
2023-05-14T08:19:51.117Z,101249.59
2023-05-14T08:22:18.165Z,101252.28
2023-05-14T08:24:45.187Z,101252.50
2023-05-14T08:27:12.216Z,101244.06
2023-05-14T08:29:39.526Z,101247.50
2023-05-14T08:32:19.385Z,101240.69
2023-05-14T08:34:50.795Z,101236.50
2023-05-14T08:37:17.969Z,101238.88
2023-05-14T08:39:45.161Z,101228.69
2023-05-14T08:42:15.632Z,101239.78
2023-05-14T08:45:04.410Z,101237.41
2023-05-14T08:47:31.666Z,101233.09
2023-05-14T08:50:06.507Z,101235.25
2023-05-14T08:52:34.795Z,101225.09
2023-05-14T08:55:06.214Z,101228.47
2023-05-14T08:57:36.786Z,101224.78
2023-05-14T09:00:11.520Z,101223.69
2023-05-14T09:02:43.080Z,101219.09
2023-05-14T09:05:10.805Z,101214.91
2023-05-14T09:07:38.483Z,101222.00
2023-05-14T09:10:06.684Z,101210.06
2023-05-14T09:12:33.798Z,101216.13
2023-05-14T09:15:00.937Z,101207.25
2023-05-14T09:17:28.310Z,101199.34
2023-05-14T09:19:55.812Z,101200.38
2023-05-14T09:22:22.912Z,101198.44
2023-05-14T09:25:09.467Z,101198.38
2023-05-14T09:27:36.863Z,101187.97
2023-05-14T09:30:09.431Z,101180.06
2023-05-14T09:32:49.868Z,101184.34
2023-05-14T09:35:25.856Z,101173.31
2023-05-14T09:37:55.356Z,101165.28
2023-05-14T09:40:24.658Z,101167.97
2023-05-14T09:42:52.145Z,101165.41
2023-05-14T09:45:19.195Z,101153.59
2023-05-14T09:47:46.396Z,101148.03
2023-05-14T09:50:13.759Z,101143.41
2023-05-14T09:52:41.216Z,101136.47
2023-05-14T09:55:08.959Z,101146.19
2023-05-14T09:57:36.584Z,101139.53
2023-05-14T10:00:04.485Z,101132.97
2023-05-14T10:02:41.508Z,101137.56
2023-05-14T10:05:09.829Z,101131.16
2023-05-14T10:07:48.265Z,101133.38
2023-05-14T10:10:24.442Z,101126.13
2023-05-14T10:12:58.746Z,101122.78
2023-05-14T10:15:52.948Z,101113.19
2023-05-14T10:18:22.532Z,101112.13
2023-05-14T10:21:06.830Z,101108.47
2023-05-14T10:23:37.771Z,101109.31
2023-05-14T10:26:05.746Z,101093.59
2023-05-14T10:28:33.610Z,101095.06
2023-05-14T10:31:01.322Z,101090.38
2023-05-14T10:33:28.680Z,101085.38
2023-05-14T10:36:10.048Z,101081.34
2023-05-14T10:38:38.529Z,101083.06
2023-05-14T10:41:10.926Z,101078.97
2023-05-14T10:43:41.621Z,101082.06
2023-05-14T10:46:12.202Z,101074.78
2023-05-14T10:48:44.194Z,101076.34
2023-05-14T10:51:12.526Z,101074.56
2023-05-14T10:53:42.968Z,101083.69
2023-05-14T10:56:14.589Z,101069.09
2023-05-14T10:58:46.093Z,101059.19
2023-05-14T11:01:14.239Z,101066.03
2023-05-14T11:03:45.449Z,101062.41
2023-05-14T11:06:15.386Z,101063.38
2023-05-14T11:08:43.030Z,101062.88
2023-05-14T11:11:10.946Z,101057.28
2023-05-14T11:13:41.714Z,101063.44
2023-05-14T11:16:21.851Z,101054.72
2023-05-14T11:19:03.505Z,101056.75
2023-05-14T11:21:32.781Z,101046.97
2023-05-14T11:24:05.294Z,101046.94
2023-05-14T11:26:33.049Z,101049.88
2023-05-14T11:29:00.608Z,101047.66
2023-05-14T11:31:28.435Z,101045.31
2023-05-14T11:33:55.932Z,101042.44
2023-05-14T11:36:23.170Z,101038.72
2023-05-14T11:38:52.362Z,101039.41
2023-05-14T11:41:21.555Z,101037.28
2023-05-14T11:43:49.035Z,101031.56
2023-05-14T11:46:19.348Z,101027.28
2023-05-14T11:48:46.762Z,101015.44
2023-05-14T11:51:15.075Z,101015.88
2023-05-14T11:53:42.331Z,101013.81
2023-05-14T11:56:10.085Z,101015.41
2023-05-14T11:58:37.542Z,101014.53
2023-05-14T12:01:04.841Z,101013.59
2023-05-14T12:03:32.174Z,101011.00
2023-05-14T12:06:02.094Z,101006.09
2023-05-14T12:08:31.687Z,101006.81
2023-05-14T12:11:00.994Z,101001.41
2023-05-14T12:13:31.193Z,100999.56
2023-05-14T12:16:01.935Z,100994.50
2023-05-14T12:18:32.340Z,100992.38
2023-05-14T12:21:05.891Z,100996.50
2023-05-14T12:23:33.365Z,100988.34
2023-05-14T12:26:08.958Z,100999.22
2023-05-14T12:28:43.462Z,100995.47
2023-05-14T12:31:11.844Z,100986.91
2023-05-14T12:33:41.281Z,100977.38
2023-05-14T12:38:41.752Z,100981.84
2023-05-14T12:41:08.969Z,100974.28
2023-05-14T12:43:36.384Z,100968.50
2023-05-14T12:46:03.533Z,100964.66
2023-05-14T12:48:30.593Z,100964.97
2023-05-14T12:50:57.635Z,100958.78
2023-05-14T12:53:24.752Z,100953.75
2023-05-14T12:55:54.444Z,100954.50
2023-05-14T12:58:21.522Z,100947.88
2023-05-14T13:00:51.281Z,100950.28
2023-05-14T13:03:18.834Z,100948.22
2023-05-14T13:05:46.189Z,100951.88
2023-05-14T13:08:17.617Z,100946.94
2023-05-14T13:10:45.464Z,100946.84
2023-05-14T13:13:14.950Z,100948.06
2023-05-14T13:15:42.641Z,100958.41
2023-05-14T13:18:09.776Z,100942.19
2023-05-14T13:20:37.128Z,100955.31
2023-05-14T13:23:04.189Z,100943.25
2023-05-14T13:25:31.296Z,100937.34
2023-05-14T13:27:58.625Z,100932.44
2023-05-14T13:30:25.752Z,100927.06
2023-05-14T13:32:52.861Z,100927.00
2023-05-14T13:35:19.951Z,100920.69
2023-05-14T13:37:47.649Z,100926.56
2023-05-14T13:40:14.796Z,100919.38
2023-05-14T13:42:41.870Z,100919.91
2023-05-14T13:45:11.472Z,100920.09
2023-05-14T13:47:41.457Z,100908.47
2023-05-14T13:50:09.013Z,100911.56
2023-05-14T13:52:36.525Z,100903.72
2023-05-14T13:55:04.200Z,100897.00
2023-05-14T13:57:31.250Z,100898.88
2023-05-14T13:59:58.367Z,100896.41
2023-05-14T14:02:25.545Z,100893.88
2023-05-14T14:04:52.749Z,100890.19
2023-05-14T14:07:21.139Z,100888.75
2023-05-14T14:09:48.269Z,100888.91
2023-05-14T14:12:15.502Z,100892.88
2023-05-14T14:14:44.570Z,100895.84
2023-05-14T14:17:11.889Z,100890.97
2023-05-14T14:19:38.957Z,100889.03
2023-05-14T14:22:06.084Z,100888.31
2023-05-14T14:24:33.181Z,100894.09
2023-05-14T14:27:03.771Z,100893.75
2023-05-14T14:29:31.189Z,100891.34
2023-05-14T14:31:59.111Z,100878.38
2023-05-14T14:34:26.366Z,100879.91
2023-05-14T14:36:53.523Z,100874.88
2023-05-14T14:39:21.735Z,100875.41
2023-05-14T14:41:48.868Z,100876.00
2023-05-14T14:44:15.971Z,100874.09
2023-05-14T14:46:43.024Z,100874.91
2023-05-14T14:49:10.113Z,100871.53
2023-05-14T14:51:37.313Z,100878.00
2023-05-14T14:54:07.210Z,100865.00
2023-05-14T14:56:34.631Z,100866.88
2023-05-14T14:59:02.113Z,100867.38
2023-05-14T15:01:29.281Z,100865.53
2023-05-14T15:03:58.678Z,100866.31
2023-05-14T15:06:25.724Z,100870.19
2023-05-14T15:08:52.865Z,100861.28
2023-05-14T15:11:21.329Z,100863.38
2023-05-14T15:13:49.652Z,100861.41
2023-05-14T15:16:16.926Z,100859.16
2023-05-14T15:18:44.070Z,100859.38
2023-05-14T15:21:11.237Z,100858.56
2023-05-14T15:23:38.335Z,100856.59
2023-05-14T15:26:05.652Z,100858.44
2023-05-14T15:28:33.184Z,100845.44
2023-05-14T15:31:02.309Z,100846.13
2023-05-14T15:33:33.863Z,100837.88
2023-05-14T15:36:00.906Z,100835.50
2023-05-14T15:38:28.221Z,100833.13
2023-05-14T15:40:55.312Z,100832.75
2023-05-14T15:43:22.552Z,100830.72
2023-05-14T15:45:55.944Z,100828.69
2023-05-14T15:48:23.017Z,100823.44
2023-05-14T15:50:50.245Z,100824.91
2023-05-14T15:53:19.705Z,100816.75
2023-05-14T15:55:49.029Z,100815.53
2023-05-14T15:58:16.097Z,100815.31
2023-05-14T16:00:43.226Z,100811.94
2023-05-14T16:03:11.004Z,100813.53
2023-05-14T16:05:38.251Z,100802.56
2023-05-14T16:08:06.324Z,100799.09
2023-05-14T16:10:33.554Z,100795.63
2023-05-14T16:13:00.892Z,100798.41
2023-05-14T16:15:28.285Z,100801.25
2023-05-14T16:17:55.730Z,100797.94
2023-05-14T16:20:23.341Z,100788.38
2023-05-14T16:22:50.526Z,100795.50
2023-05-14T16:25:19.795Z,100792.03
2023-05-14T16:27:46.881Z,100788.53
2023-05-14T16:30:14.233Z,100788.53
2023-05-14T16:32:42.060Z,100788.28
2023-05-14T16:35:09.884Z,100784.16
2023-05-14T16:37:36.962Z,100792.63
2023-05-14T16:40:04.880Z,100776.38
2023-05-14T16:42:31.978Z,100787.78
2023-05-14T16:44:59.025Z,100784.25
2023-05-14T16:47:26.067Z,100780.78
2023-05-14T16:49:53.293Z,100783.66
2023-05-14T16:52:23.318Z,100778.78
2023-05-14T16:54:50.900Z,100778.75
2023-05-14T16:57:18.003Z,100781.94
2023-05-14T16:59:45.291Z,100784.16
2023-05-14T17:02:12.324Z,100780.97
2023-05-14T17:04:42.035Z,100777.94
2023-05-14T17:07:09.510Z,100784.63
2023-05-14T17:09:36.604Z,100790.97
2023-05-14T17:12:04.343Z,100786.25
2023-05-14T17:14:31.671Z,100787.03
2023-05-14T17:16:58.851Z,100781.31
2023-05-14T17:19:26.120Z,100775.38
2023-05-14T17:21:53.186Z,100783.09
2023-05-14T17:24:20.295Z,100778.91
2023-05-14T17:26:47.582Z,100774.22
2023-05-14T17:29:15.813Z,100770.50
2023-05-14T17:31:43.201Z,100775.97
2023-05-14T17:34:10.385Z,100779.91
2023-05-14T17:36:37.480Z,100777.72
2023-05-14T17:39:04.622Z,100779.91
2023-05-14T17:41:31.723Z,100778.47
2023-05-14T17:43:59.985Z,100772.22
2023-05-14T17:46:27.180Z,100768.16
2023-05-14T17:48:58.124Z,100765.59
2023-05-14T17:51:27.567Z,100764.63
2023-05-14T17:53:54.627Z,100766.75
2023-05-14T17:56:22.083Z,100769.41
2023-05-14T17:58:49.869Z,100772.63
2023-05-14T18:01:16.941Z,100779.91
2023-05-14T18:03:44.248Z,100770.50
2023-05-14T18:06:11.570Z,100772.38
2023-05-14T18:08:41.169Z,100773.59
2023-05-14T18:11:08.479Z,100776.28
2023-05-14T18:13:38.122Z,100781.16
2023-05-14T18:16:05.756Z,100782.63
2023-05-14T18:18:33.073Z,100778.13
2023-05-14T18:21:00.510Z,100779.06
2023-05-14T18:23:27.837Z,100778.63
2023-05-14T18:25:55.054Z,100785.09
2023-05-14T18:28:24.563Z,100777.91
2023-05-14T18:30:51.823Z,100783.28
2023-05-14T18:33:18.930Z,100780.25
2023-05-14T18:35:46.001Z,100776.13
2023-05-14T18:38:13.765Z,100782.97
2023-05-14T18:40:40.946Z,100781.22
2023-05-14T18:43:08.037Z,100785.41
2023-05-14T18:45:35.216Z,100786.47
2023-05-14T18:48:02.279Z,100777.09
2023-05-14T18:50:29.488Z,100783.81
2023-05-14T18:52:59.326Z,100784.47
2023-05-14T18:55:26.587Z,100784.22
2023-05-14T18:57:54.097Z,100789.56
2023-05-14T19:00:21.245Z,100790.41
2023-05-14T19:02:48.380Z,100796.06
2023-05-14T19:05:15.559Z,100793.63
2023-05-14T19:07:43.680Z,100794.91
2023-05-14T19:10:11.162Z,100783.88
2023-05-14T19:12:38.235Z,100788.91
2023-05-14T19:15:06.441Z,100790.66
2023-05-14T19:17:33.891Z,100786.75
2023-05-14T19:20:00.924Z,100791.50
2023-05-14T19:22:28.021Z,100781.94
2023-05-14T19:24:55.113Z,100791.66
2023-05-14T19:27:24.024Z,100789.84
2023-05-14T19:29:51.181Z,100791.63
2023-05-14T19:32:18.341Z,100787.47
2023-05-14T19:34:45.412Z,100790.28
2023-05-14T19:37:12.451Z,100778.94
2023-05-14T19:39:39.540Z,100783.69
2023-05-14T19:42:06.838Z,100782.19
2023-05-14T19:44:33.920Z,100784.50
2023-05-14T19:47:01.324Z,100774.81
2023-05-14T19:49:28.419Z,100774.00
2023-05-14T19:51:55.460Z,100770.09
2023-05-14T19:54:24.602Z,100771.81
2023-05-14T19:56:51.698Z,100768.94
2023-05-14T19:59:18.723Z,100774.25
2023-05-14T20:01:47.090Z,100765.44
2023-05-14T20:04:16.066Z,100761.53
2023-05-14T20:06:45.435Z,100765.03
2023-05-14T20:09:13.630Z,100763.00
2023-05-14T20:11:40.781Z,100758.72
2023-05-14T20:14:07.824Z,100760.03
2023-05-14T20:16:34.889Z,100754.88
2023-05-14T20:19:02.240Z,100759.06
2023-05-14T20:21:29.540Z,100751.66
2023-05-14T20:23:56.727Z,100749.75
2023-05-14T20:26:23.876Z,100756.34
2023-05-14T20:28:50.959Z,100753.00
2023-05-14T20:31:19.109Z,100755.97
2023-05-14T20:33:46.160Z,100744.00
2023-05-14T20:36:13.263Z,100752.81
2023-05-14T20:38:40.769Z,100737.88
2023-05-14T20:41:08.976Z,100739.03
2023-05-14T20:43:36.054Z,100742.38
2023-05-14T20:46:05.679Z,100739.22
2023-05-14T20:48:32.774Z,100735.75
2023-05-14T20:50:59.947Z,100726.84
2023-05-14T20:53:28.657Z,100725.25
2023-05-14T20:55:55.773Z,100724.13
2023-05-14T20:58:22.810Z,100727.47
2023-05-14T21:00:52.479Z,100732.00
2023-05-14T21:03:19.671Z,100726.78
2023-05-14T21:05:46.935Z,100722.16
2023-05-14T21:08:14.009Z,100717.69
2023-05-14T21:10:41.073Z,100720.19
2023-05-14T21:13:08.530Z,100715.97
2023-05-14T21:15:35.686Z,100724.22
2023-05-14T21:18:03.153Z,100710.78
2023-05-14T21:20:33.092Z,100712.31
2023-05-14T21:23:00.266Z,100704.94
2023-05-14T21:25:27.496Z,100701.28
2023-05-14T21:27:54.605Z,100705.97
2023-05-14T21:30:22.431Z,100702.72
2023-05-14T21:32:49.555Z,100700.78
2023-05-14T21:35:16.750Z,100699.03
2023-05-14T21:37:43.984Z,100696.59
2023-05-14T21:40:14.965Z,100697.38
2023-05-14T21:42:42.022Z,100694.34
2023-05-14T21:45:09.832Z,100695.09
2023-05-14T21:47:37.971Z,100687.06
2023-05-14T21:50:06.827Z,100695.59
2023-05-14T21:52:33.889Z,100689.66
2023-05-14T21:55:00.931Z,100692.22
2023-05-14T21:57:29.206Z,100689.59
2023-05-14T21:59:58.115Z,100684.56
2023-05-14T22:02:25.333Z,100685.41
2023-05-14T22:04:52.583Z,100678.38
2023-05-14T22:07:19.798Z,100679.69
2023-05-14T22:09:48.217Z,100668.06
2023-05-14T22:12:15.408Z,100673.69
2023-05-14T22:14:42.539Z,100675.03
2023-05-14T22:17:09.699Z,100670.09
2023-05-14T22:19:36.765Z,100667.19
2023-05-14T22:22:04.129Z,100668.16
2023-05-14T22:24:31.195Z,100656.53
2023-05-14T22:26:58.235Z,100662.13
2023-05-14T22:29:25.381Z,100662.00
2023-05-14T22:31:52.660Z,100661.56
2023-05-14T22:34:19.863Z,100661.25
2023-05-14T22:36:47.061Z,100664.59
2023-05-14T22:39:15.462Z,100663.50
2023-05-14T22:41:42.592Z,100659.63
2023-05-14T22:44:09.712Z,100660.03
2023-05-14T22:46:36.905Z,100652.72
2023-05-14T22:49:04.014Z,100657.03
2023-05-14T22:51:31.150Z,100650.28
2023-05-14T22:53:58.329Z,100649.94
2023-05-14T22:56:25.608Z,100648.00
2023-05-14T22:58:52.649Z,100652.16
2023-05-14T23:01:19.721Z,100646.28
2023-05-14T23:03:46.809Z,100644.34
2023-05-14T23:06:14.726Z,100640.66
2023-05-14T23:08:42.901Z,100636.25
2023-05-14T23:11:10.267Z,100630.09
2023-05-14T23:13:37.332Z,100626.13
2023-05-14T23:16:05.956Z,100628.19
2023-05-14T23:18:33.183Z,100619.72
2023-05-14T23:21:00.400Z,100622.22
2023-05-14T23:23:27.468Z,100616.75
2023-05-14T23:25:55.944Z,100620.25
2023-05-14T23:28:24.123Z,100613.16
2023-05-14T23:30:51.171Z,100620.41
2023-05-14T23:33:19.004Z,100615.59
2023-05-14T23:35:46.199Z,100612.22
2023-05-14T23:38:14.450Z,100607.72
2023-05-14T23:40:41.502Z,100601.41
2023-05-14T23:43:08.578Z,100593.75
2023-05-14T23:45:37.994Z,100593.38
2023-05-14T23:48:05.838Z,100591.78
2023-05-14T23:50:32.909Z,100598.28
2023-05-14T23:52:59.985Z,100593.69
2023-05-14T23:55:27.254Z,100592.16
2023-05-14T23:57:54.429Z,100583.06
